Time;durP1;ratioP1;P1;durP2;ratioP2;P2;SDS_P1;SDS_P2;PMS_P1;PMS_P2;Temp;Humidity;BMP_temperature;BMP_pressure;BME280_temperature;BME280_humidity;BME280_pressure;Samples;Min_cycle;Max_cycle;Signal;HPM_P1;HPM_P2
2022/07/24 00:01:11;;;;;;;5.03;3.05;;;10.40;99.90;;;;;;5053738;28;20033;-71
2022/07/24 00:03:39;;;;;;;8.55;3.72;;;10.40;99.90;;;;;;5053641;28;20528;-69
2022/07/24 00:06:06;;;;;;;4.10;3.47;;;10.40;99.90;;;;;;5053682;28;20041;-70
2022/07/24 00:08:34;;;;;;;8.00;3.45;;;10.40;99.90;;;;;;5053603;28;20029;-70
2022/07/24 00:11:01;;;;;;;7.22;3.33;;;10.50;99.90;;;;;;5053515;28;20040;-69
2022/07/24 00:13:28;;;;;;;3.95;3.13;;;10.50;99.90;;;;;;5052774;28;20045;-70
2022/07/24 00:15:55;;;;;;;4.47;3.13;;;10.50;99.90;;;;;;5053277;28;20032;-69
2022/07/24 00:18:23;;;;;;;5.55;3.72;;;10.60;99.90;;;;;;5053402;28;20070;-69
2022/07/24 00:20:50;;;;;;;5.47;3.40;;;10.60;99.90;;;;;;5053472;28;20029;-70
2022/07/24 00:23:17;;;;;;;4.75;3.35;;;10.70;99.90;;;;;;5053657;28;20036;-70
2022/07/24 00:25:45;;;;;;;5.25;3.13;;;10.70;99.90;;;;;;5053413;28;20021;-69
2022/07/24 00:28:12;;;;;;;2.95;2.35;;;10.80;99.90;;;;;;5053272;28;20036;-70
2022/07/24 00:30:39;;;;;;;3.78;2.78;;;10.90;99.90;;;;;;5053713;28;20032;-70
2022/07/24 00:33:07;;;;;;;6.28;2.28;;;10.90;99.90;;;;;;5053398;28;20071;-70
2022/07/24 00:35:34;;;;;;;4.53;2.92;;;10.90;99.90;;;;;;5053199;28;20485;-70
2022/07/24 00:38:03;;;;;;;5.50;2.20;;;11.00;99.90;;;;;;5053226;28;20036;-71
2022/07/24 00:40:30;;;;;;;5.25;2.30;;;11.10;99.90;;;;;;5053264;28;20025;-70
2022/07/24 00:42:59;;;;;;;5.05;3.03;;;11.10;99.90;;;;;;5053171;28;20021;-70
2022/07/24 00:45:26;;;;;;;6.68;2.00;;;11.20;99.90;;;;;;5052957;28;20028;-70
2022/07/24 00:47:54;;;;;;;3.85;2.20;;;11.20;99.90;;;;;;5053315;28;20108;-70
2022/07/24 00:50:21;;;;;;;5.28;2.78;;;11.20;99.90;;;;;;5053074;28;20083;-73
2022/07/24 00:52:49;;;;;;;4.40;2.60;;;11.30;99.90;;;;;;5053176;28;20109;-70
2022/07/24 00:55:16;;;;;;;3.67;2.30;;;11.40;99.90;;;;;;5052875;28;20056;-70
2022/07/24 00:57:46;;;;;;;8.98;2.80;;;11.40;99.90;;;;;;5053152;28;20025;-70
2022/07/24 01:00:16;;;;;;;2.55;1.80;;;11.40;99.90;;;;;;5053103;28;20060;-70
2022/07/24 01:02:43;;;;;;;4.80;1.80;;;11.50;99.90;;;;;;5052674;28;20156;-70
2022/07/24 01:05:11;;;;;;;5.65;2.67;;;11.60;99.90;;;;;;5052889;28;20028;-70
2022/07/24 01:07:39;;;;;;;7.50;1.90;;;11.70;99.90;;;;;;5053088;28;20021;-70
2022/07/24 01:10:08;;;;;;;5.45;2.53;;;11.80;99.90;;;;;;5052996;28;20430;-70
2022/07/24 01:12:37;;;;;;;5.00;1.90;;;11.90;99.90;;;;;;5052975;28;20017;-70
2022/07/24 01:15:06;;;;;;;2.95;1.67;;;11.90;99.90;;;;;;5052784;28;20041;-69
2022/07/24 01:17:35;;;;;;;4.25;1.38;;;11.90;99.90;;;;;;5052806;28;20205;-70
2022/07/24 01:20:03;;;;;;;4.88;1.75;;;11.90;99.90;;;;;;5052834;28;20386;-69
2022/07/24 01:22:31;;;;;;;2.38;1.42;;;11.90;99.90;;;;;;5053104;28;20017;-69
2022/07/24 01:24:58;;;;;;;3.45;1.30;;;12.00;99.90;;;;;;5054496;28;20132;-69
2022/07/24 01:27:26;;;;;;;2.90;1.10;;;12.00;99.90;;;;;;5056708;28;20025;-69
2022/07/24 01:29:53;;;;;;;1.60;0.95;;;12.00;99.90;;;;;;5056366;28;20094;-70
2022/07/24 01:32:21;;;;;;;4.70;1.20;;;12.10;99.90;;;;;;5056494;28;20029;-69
2022/07/24 01:34:48;;;;;;;2.00;1.35;;;12.00;99.90;;;;;;5056295;28;20155;-72
2022/07/24 01:37:15;;;;;;;5.28;1.38;;;12.10;99.90;;;;;;5056253;28;20104;-71
2022/07/24 01:40:03;;;;;;;2.33;1.20;;;12.10;99.90;;;;;;5056295;28;20385;-69
2022/07/24 01:42:30;;;;;;;7.10;1.77;;;12.20;99.90;;;;;;5055741;28;20044;-69
2022/07/24 01:44:57;;;;;;;1.13;0.80;;;12.20;99.90;;;;;;5056341;28;20036;-69
2022/07/24 01:47:24;;;;;;;2.17;0.98;;;12.30;99.90;;;;;;5056237;28;20013;-71
2022/07/24 01:49:52;;;;;;;2.47;0.90;;;12.30;99.90;;;;;;5056179;28;20067;-69
2022/07/24 01:52:19;;;;;;;2.85;1.00;;;12.20;99.90;;;;;;5056048;28;20033;-72
2022/07/24 01:54:46;;;;;;;0.75;0.60;;;12.30;99.90;;;;;;5056281;28;20029;-69
2022/07/24 01:57:13;;;;;;;3.13;0.77;;;12.20;99.90;;;;;;5056000;28;20462;-70
2022/07/24 01:59:41;;;;;;;1.33;0.98;;;12.30;99.90;;;;;;5056077;28;20465;-69
2022/07/24 02:02:08;;;;;;;2.67;0.93;;;12.30;99.90;;;;;;5055627;28;20448;-71
2022/07/24 02:04:38;;;;;;;4.28;0.80;;;12.30;99.90;;;;;;5055884;28;20025;-69
2022/07/24 02:07:05;;;;;;;5.18;0.88;;;12.30;99.90;;;;;;5055567;28;20437;-69
2022/07/24 02:09:33;;;;;;;1.13;0.73;;;12.30;99.90;;;;;;5055671;28;20478;-69
2022/07/24 02:12:00;;;;;;;2.30;0.70;;;12.30;99.90;;;;;;5055664;28;20036;-69
2022/07/24 02:14:27;;;;;;;2.17;0.50;;;12.30;99.90;;;;;;5055567;28;20075;-69
2022/07/24 02:16:55;;;;;;;1.58;0.60;;;12.30;99.90;;;;;;5055856;28;20052;-69
2022/07/24 02:19:23;;;;;;;4.07;0.70;;;12.40;99.90;;;;;;5054139;28;20060;-69
2022/07/24 02:21:50;;;;;;;2.38;0.80;;;12.50;99.90;;;;;;5055623;28;20032;-69
2022/07/24 02:24:17;;;;;;;0.55;0.50;;;12.50;99.90;;;;;;5055409;28;20025;-69
2022/07/24 02:26:45;;;;;;;3.40;0.50;;;12.60;99.90;;;;;;5055553;28;20025;-69
2022/07/24 02:29:12;;;;;;;3.78;1.40;;;12.70;99.90;;;;;;5055391;28;20110;-70
2022/07/24 02:31:39;;;;;;;1.08;0.73;;;12.80;99.90;;;;;;5055517;28;20025;-70
2022/07/24 02:34:07;;;;;;;7.93;0.90;;;12.80;99.90;;;;;;5055266;28;20025;-70
2022/07/24 02:36:34;;;;;;;4.13;0.73;;;12.90;99.90;;;;;;5054822;28;20458;-70
2022/07/24 02:39:01;;;;;;;0.65;0.30;;;13.10;99.90;;;;;;5055219;28;20064;-70
2022/07/24 02:41:28;;;;;;;0.47;0.35;;;13.20;99.90;;;;;;5055177;28;20078;-70
2022/07/24 02:43:56;;;;;;;1.73;0.75;;;13.30;99.90;;;;;;5055025;28;20025;-72
2022/07/24 02:46:23;;;;;;;2.80;0.70;;;13.40;99.90;;;;;;5055218;28;20385;-70
2022/07/24 02:48:50;;;;;;;2.78;0.57;;;13.50;99.90;;;;;;5055073;28;20025;-72
2022/07/24 02:51:18;;;;;;;1.23;0.50;;;13.60;99.90;;;;;;5054873;28;20040;-72
2022/07/24 02:53:45;;;;;;;2.58;0.98;;;13.60;99.90;;;;;;5054758;28;20096;-71
2022/07/24 02:56:12;;;;;;;1.27;0.80;;;13.70;99.90;;;;;;5054893;28;20032;-71
2022/07/24 02:58:40;;;;;;;1.88;0.85;;;13.70;99.90;;;;;;5054986;28;20116;-72
2022/07/24 03:01:07;;;;;;;1.35;0.43;;;13.70;99.90;;;;;;5054896;28;20021;-71
2022/07/24 03:03:37;;;;;;;4.70;0.70;;;13.70;99.90;;;;;;5054672;28;20049;-72
2022/07/24 03:06:04;;;;;;;2.03;0.45;;;13.80;99.90;;;;;;5054833;28;20434;-71
2022/07/24 03:08:32;;;;;;;3.88;0.45;;;13.80;99.90;;;;;;5053369;28;20035;-71
2022/07/24 03:11:02;;;;;;;1.00;0.60;;;13.90;99.90;;;;;;5054622;28;20025;-71
2022/07/24 03:13:29;;;;;;;1.67;0.70;;;13.90;99.90;;;;;;5054567;28;20073;-71
2022/07/24 03:15:56;;;;;;;1.00;0.32;;;13.90;99.90;;;;;;5054305;28;20040;-71
2022/07/24 03:18:24;;;;;;;0.50;0.47;;;13.90;99.90;;;;;;5054398;28;20028;-71
2022/07/24 03:20:51;;;;;;;5.60;0.80;;;13.80;99.90;;;;;;5054519;28;20397;-72
2022/07/24 03:23:21;;;;;;;1.80;0.63;;;13.80;99.90;;;;;;5054546;28;20021;-70
2022/07/24 03:25:48;;;;;;;0.80;0.40;;;13.80;99.90;;;;;;5054388;28;20075;-71
2022/07/24 03:28:16;;;;;;;0.75;0.52;;;13.70;99.90;;;;;;5054303;28;20017;-70
2022/07/24 03:30:43;;;;;;;0.52;0.32;;;13.70;99.90;;;;;;5054186;28;20029;-70
2022/07/24 03:33:11;;;;;;;3.53;0.50;;;13.70;99.90;;;;;;5054075;28;20017;-71
2022/07/24 03:35:38;;;;;;;1.67;0.77;;;13.60;99.90;;;;;;5054172;28;20028;-71
2022/07/24 03:38:05;;;;;;;2.05;0.55;;;13.60;99.90;;;;;;5054031;28;20017;-71
2022/07/24 03:40:32;;;;;;;1.63;0.50;;;13.50;99.90;;;;;;5054264;28;20160;-71
2022/07/24 03:43:00;;;;;;;1.17;0.60;;;13.50;99.90;;;;;;5054098;28;20021;-72
2022/07/24 03:45:27;;;;;;;0.75;0.50;;;13.40;99.90;;;;;;5053892;28;20043;-71
2022/07/24 03:47:54;;;;;;;1.27;0.52;;;13.40;99.90;;;;;;5054143;28;20031;-72
2022/07/24 03:50:22;;;;;;;0.95;0.57;;;13.30;99.90;;;;;;5053761;28;20060;-72
2022/07/24 03:52:49;;;;;;;0.75;0.50;;;13.30;99.90;;;;;;5053909;28;20040;-70
2022/07/24 03:55:17;;;;;;;1.35;0.65;;;13.30;99.90;;;;;;5052684;28;20021;-71
2022/07/24 03:57:44;;;;;;;1.98;0.55;;;13.20;99.90;;;;;;5053918;28;20100;-70
2022/07/24 04:00:12;;;;;;;1.60;0.70;;;13.20;99.90;;;;;;5053744;28;20029;-72
2022/07/24 04:02:40;;;;;;;0.90;0.70;;;13.10;99.90;;;;;;5053573;28;20044;-71
2022/07/24 04:05:08;;;;;;;1.80;0.50;;;13.10;99.90;;;;;;5053752;28;20017;-72
2022/07/24 04:07:37;;;;;;;1.00;0.43;;;13.10;99.90;;;;;;5053716;28;20017;-72
2022/07/24 04:10:06;;;;;;;1.60;1.00;;;13.10;99.90;;;;;;5053407;28;20044;-71
2022/07/24 04:12:34;;;;;;;1.58;0.55;;;13.10;99.90;;;;;;5053486;28;20029;-71
2022/07/24 04:15:01;;;;;;;1.35;0.40;;;13.10;99.90;;;;;;5053252;28;20029;-70
2022/07/24 04:17:28;;;;;;;1.60;0.75;;;13.10;99.90;;;;;;5053526;28;20021;-70
2022/07/24 04:19:55;;;;;;;1.20;0.60;;;13.10;99.90;;;;;;5053642;28;20055;-70
2022/07/24 04:22:23;;;;;;;2.58;0.47;;;13.20;99.90;;;;;;5053447;28;20025;-70
2022/07/24 04:24:50;;;;;;;1.17;0.63;;;13.20;99.90;;;;;;5053398;28;20056;-70
2022/07/24 04:27:18;;;;;;;1.40;0.50;;;13.20;99.90;;;;;;5053830;28;20028;-70
2022/07/24 04:29:45;;;;;;;1.17;0.50;;;13.30;99.90;;;;;;5053314;28;20078;-71
2022/07/24 04:32:12;;;;;;;0.95;0.47;;;13.30;99.90;;;;;;5053404;28;20025;-70
2022/07/24 04:34:39;;;;;;;1.77;0.75;;;13.40;99.90;;;;;;5053169;28;20038;-71
2022/07/24 04:37:07;;;;;;;2.60;0.82;;;13.40;99.90;;;;;;5053159;28;20021;-71
2022/07/24 04:39:34;;;;;;;1.48;0.50;;;13.40;99.90;;;;;;5053820;28;20029;-72
2022/07/24 04:42:01;;;;;;;3.13;0.98;;;13.40;99.90;;;;;;5053199;28;20470;-72
2022/07/24 04:44:29;;;;;;;0.73;0.60;;;13.40;99.90;;;;;;5053544;28;20116;-71
2022/07/24 04:46:56;;;;;;;0.85;0.57;;;13.40;99.90;;;;;;5053285;28;20029;-71
2022/07/24 04:49:23;;;;;;;0.40;0.38;;;13.40;99.90;;;;;;5053237;28;20039;-71
2022/07/24 04:51:51;;;;;;;2.85;0.70;;;13.40;99.90;;;;;;5053052;28;20021;-72
2022/07/24 04:54:18;;;;;;;4.88;0.45;;;13.40;99.90;;;;;;5052988;28;20428;-72
2022/07/24 04:56:57;;;;;;;1.55;0.82;;;13.40;99.90;;;;;;5053066;28;20018;-71
2022/07/24 04:59:24;;;;;;;1.63;0.77;;;13.40;99.90;;;;;;5053899;28;20045;-71
2022/07/24 05:01:51;;;;;;;1.33;0.60;;;13.50;99.90;;;;;;5057052;28;20056;-71
2022/07/24 05:04:18;;;;;;;2.40;0.60;;;13.50;99.90;;;;;;5055770;28;20025;-72
2022/07/24 05:06:46;;;;;;;0.77;0.50;;;13.50;99.90;;;;;;5056885;28;20082;-72
2022/07/24 05:09:14;;;;;;;0.88;0.50;;;13.50;99.90;;;;;;5056904;28;20056;-71
2022/07/24 05:11:41;;;;;;;2.65;0.52;;;13.50;99.90;;;;;;5056905;28;20035;-73
2022/07/24 05:14:08;;;;;;;2.05;0.57;;;13.50;99.90;;;;;;5056632;28;20029;-71
2022/07/24 05:16:35;;;;;;;2.13;0.80;;;13.50;99.90;;;;;;5056969;28;20056;-71
2022/07/24 05:19:03;;;;;;;1.33;0.77;;;13.50;99.90;;;;;;5055360;28;20032;-71
2022/07/24 05:21:31;;;;;;;3.13;0.95;;;13.50;99.90;;;;;;5056930;28;20056;-71
2022/07/24 05:24:01;;;;;;;2.45;0.95;;;13.50;99.90;;;;;;5056795;28;20107;-71
2022/07/24 05:26:31;;;;;;;1.88;0.70;;;13.50;99.90;;;;;;5056559;28;20070;-71
2022/07/24 05:29:02;;;;;;;1.63;0.40;;;13.50;99.90;;;;;;5056555;28;20501;-71
2022/07/24 05:31:32;;;;;;;1.98;0.63;;;13.50;99.90;;;;;;5056555;28;20033;-71
2022/07/24 05:34:01;;;;;;;2.78;0.90;;;13.50;99.90;;;;;;5056766;28;20032;-72
2022/07/24 05:36:29;;;;;;;0.88;0.40;;;13.50;99.90;;;;;;5056335;28;20401;-71
2022/07/24 05:38:56;;;;;;;0.85;0.57;;;13.50;99.90;;;;;;5056621;28;20589;-71
2022/07/24 05:41:24;;;;;;;2.97;0.73;;;13.50;99.90;;;;;;5056530;28;20025;-71
2022/07/24 05:43:51;;;;;;;4.18;0.93;;;13.50;99.90;;;;;;5056187;28;20096;-71
2022/07/24 05:46:18;;;;;;;2.03;0.80;;;13.50;99.90;;;;;;5056283;28;20100;-71
2022/07/24 05:48:46;;;;;;;1.92;0.70;;;13.40;99.90;;;;;;5056098;28;20033;-71
2022/07/24 05:51:13;;;;;;;1.23;0.50;;;13.40;99.90;;;;;;5056241;28;20032;-71
2022/07/24 05:53:40;;;;;;;2.90;0.50;;;13.40;99.90;;;;;;5056030;28;20017;-71
2022/07/24 05:56:11;;;;;;;0.77;0.55;;;13.40;99.90;;;;;;5056238;28;20109;-71
2022/07/24 05:58:38;;;;;;;2.78;0.50;;;13.40;99.90;;;;;;5056000;28;20029;-71
2022/07/24 06:01:05;;;;;;;3.83;0.77;;;13.40;99.90;;;;;;5055976;28;20025;-71
2022/07/24 06:03:33;;;;;;;2.03;0.70;;;13.50;99.90;;;;;;5055725;28;20053;-72
2022/07/24 06:06:00;;;;;;;1.90;1.10;;;13.40;99.90;;;;;;5056077;28;20100;-71
2022/07/24 06:08:27;;;;;;;0.80;0.60;;;13.40;99.90;;;;;;5055766;28;20409;-71
2022/07/24 06:10:55;;;;;;;2.70;0.73;;;13.30;99.90;;;;;;5054744;28;20459;-73
2022/07/24 06:13:22;;;;;;;1.35;0.50;;;13.40;99.90;;;;;;5055406;28;20029;-71
2022/07/24 06:15:49;;;;;;;1.00;0.70;;;13.30;99.90;;;;;;5055884;28;20082;-71
2022/07/24 06:18:16;;;;;;;2.08;0.60;;;13.30;99.90;;;;;;5055690;28;20052;-72
2022/07/24 06:20:44;;;;;;;2.85;0.85;;;13.30;99.90;;;;;;5055584;28;20116;-72
2022/07/24 06:23:11;;;;;;;2.00;0.80;;;13.30;99.90;;;;;;5055761;28;20150;-71
2022/07/24 06:25:38;;;;;;;1.00;0.57;;;13.20;99.90;;;;;;5055585;28;20017;-71
2022/07/24 06:28:06;;;;;;;1.23;0.80;;;13.20;99.90;;;;;;5055503;28;20070;-71
2022/07/24 06:30:33;;;;;;;3.67;1.17;;;13.20;99.90;;;;;;5055183;28;20028;-70
2022/07/24 06:33:00;;;;;;;2.22;0.60;;;13.20;99.90;;;;;;5055455;28;20032;-71
2022/07/24 06:35:32;;;;;;;2.28;0.73;;;13.10;99.90;;;;;;5055293;28;20108;-72
2022/07/24 06:38:00;;;;;;;2.00;1.00;;;13.10;99.90;;;;;;5055448;28;20024;-71
2022/07/24 06:40:28;;;;;;;2.53;0.70;;;13.10;99.90;;;;;;5055178;28;20020;-72
2022/07/24 06:42:56;;;;;;;1.48;1.02;;;13.10;99.90;;;;;;5055136;28;20107;-71
2022/07/24 06:45:23;;;;;;;1.95;1.00;;;13.00;99.90;;;;;;5055213;28;20025;-70
2022/07/24 06:47:50;;;;;;;2.33;0.95;;;13.00;99.90;;;;;;5055032;28;20024;-71
2022/07/24 06:50:18;;;;;;;0.85;0.70;;;13.00;99.90;;;;;;5055158;28;20488;-71
2022/07/24 06:52:48;;;;;;;1.35;0.98;;;13.00;99.90;;;;;;5054893;28;20385;-71
2022/07/24 06:55:15;;;;;;;1.45;0.73;;;12.90;99.90;;;;;;5054750;28;20021;-71
2022/07/24 06:57:43;;;;;;;1.23;0.80;;;12.90;99.90;;;;;;5054971;28;20021;-70
2022/07/24 07:00:11;;;;;;;2.42;0.82;;;12.90;99.90;;;;;;5055007;28;20107;-71
2022/07/24 07:02:39;;;;;;;1.80;1.05;;;12.90;99.90;;;;;;5054680;28;20052;-73
2022/07/24 07:05:08;;;;;;;4.50;1.10;;;12.80;99.90;;;;;;5054587;28;20036;-73
2022/07/24 07:07:39;;;;;;;1.27;0.80;;;12.80;99.90;;;;;;5054915;28;20056;-71
2022/07/24 07:10:07;;;;;;;2.00;0.82;;;12.80;99.90;;;;;;5054574;28;20033;-72
2022/07/24 07:12:37;;;;;;;1.85;0.60;;;12.80;99.90;;;;;;5054651;28;20017;-71
2022/07/24 07:15:05;;;;;;;2.75;0.88;;;12.80;99.90;;;;;;5054655;28;20021;-71
2022/07/24 07:17:33;;;;;;;2.17;0.77;;;12.70;99.90;;;;;;5054654;28;20041;-70
2022/07/24 07:20:06;;;;;;;2.47;1.27;;;12.70;99.90;;;;;;5054461;28;20486;-70
2022/07/24 07:22:34;;;;;;;5.05;0.95;;;12.70;99.90;;;;;;5054045;28;20083;-71
2022/07/24 07:25:02;;;;;;;2.67;1.15;;;12.60;99.90;;;;;;5054419;28;20040;-72
2022/07/24 07:27:29;;;;;;;1.67;0.90;;;12.60;99.90;;;;;;5054558;28;20017;-70
2022/07/24 07:29:56;;;;;;;2.40;0.80;;;12.50;99.90;;;;;;5054401;28;20145;-71
2022/07/24 07:32:24;;;;;;;2.53;1.05;;;12.50;99.90;;;;;;5054119;28;20025;-71
2022/07/24 07:34:51;;;;;;;4.72;1.15;;;12.50;99.90;;;;;;5054067;28;20414;-70
2022/07/24 07:37:18;;;;;;;2.38;1.08;;;12.40;99.90;;;;;;5052981;28;20541;-70
2022/07/24 07:39:46;;;;;;;1.42;1.13;;;12.40;99.90;;;;;;5054069;28;20032;-71
2022/07/24 07:42:13;;;;;;;3.13;1.13;;;12.40;99.90;;;;;;5054211;28;20150;-70
2022/07/24 07:44:40;;;;;;;1.70;1.00;;;12.40;99.90;;;;;;5053897;28;20060;-71
2022/07/24 07:47:08;;;;;;;1.77;0.77;;;12.30;99.90;;;;;;5053963;28;20022;-71
2022/07/24 07:49:35;;;;;;;7.25;1.52;;;12.40;99.90;;;;;;5054255;28;20076;-72
2022/07/24 07:52:02;;;;;;;4.78;1.40;;;12.30;99.90;;;;;;5053865;28;20025;-70
2022/07/24 07:54:30;;;;;;;2.65;1.30;;;12.30;99.90;;;;;;5053657;28;20025;-71
2022/07/24 07:56:57;;;;;;;4.05;1.55;;;12.30;99.90;;;;;;5053925;28;20374;-70
2022/07/24 07:59:27;;;;;;;3.42;1.38;;;12.30;99.90;;;;;;5053861;28;20021;-70
2022/07/24 08:01:54;;;;;;;3.92;1.30;;;12.20;99.90;;;;;;5053463;28;20048;-71
2022/07/24 08:04:22;;;;;;;2.72;1.30;;;12.20;99.90;;;;;;5053799;28;20029;-70
2022/07/24 08:06:52;;;;;;;2.42;0.93;;;12.20;99.90;;;;;;5053626;28;20359;-73
2022/07/24 08:09:20;;;;;;;3.33;1.20;;;12.20;99.90;;;;;;5053733;28;20033;-72
2022/07/24 08:11:48;;;;;;;4.63;2.00;;;12.10;99.90;;;;;;5053651;28;20074;-70
2022/07/24 08:14:15;;;;;;;2.60;1.52;;;12.10;99.90;;;;;;5053416;28;20033;-70
2022/07/24 08:16:43;;;;;;;3.83;2.20;;;12.10;99.90;;;;;;5053484;28;20036;-70
2022/07/24 08:19:10;;;;;;;3.75;1.70;;;12.00;99.90;;;;;;5053561;28;20057;-72
2022/07/24 08:21:37;;;;;;;3.97;1.70;;;12.10;99.90;;;;;;5053622;28;20370;-72
2022/07/24 08:24:05;;;;;;;2.53;1.55;;;12.00;99.90;;;;;;5053282;28;20078;-71
2022/07/24 08:26:32;;;;;;;2.80;1.38;;;12.00;99.90;;;;;;5053514;28;20075;-71
2022/07/24 08:29:00;;;;;;;4.40;1.95;;;12.00;99.90;;;;;;5053243;28;20053;-73
2022/07/24 08:31:27;;;;;;;3.38;1.80;;;12.00;99.90;;;;;;5053413;28;20029;-72
2022/07/24 08:33:55;;;;;;;4.93;1.55;;;11.90;99.90;;;;;;5052592;28;20040;-71
2022/07/24 08:36:22;;;;;;;5.25;1.48;;;11.90;99.90;;;;;;5053607;28;20025;-72
2022/07/24 08:38:49;;;;;;;3.80;1.35;;;11.90;99.90;;;;;;5052443;28;20037;-72
2022/07/24 08:41:18;;;;;;;3.17;1.10;;;11.90;99.90;;;;;;5053243;28;20021;-70
2022/07/24 08:43:45;;;;;;;1.35;0.90;;;11.90;99.90;;;;;;5053167;28;20022;-70
2022/07/24 08:46:18;;;;;;;3.53;1.30;;;11.80;99.90;;;;;;5053356;28;20044;-71
2022/07/24 08:48:46;;;;;;;3.58;1.30;;;11.80;99.90;;;;;;5053326;28;20032;-70
2022/07/24 08:51:19;;;;;;;2.03;1.08;;;11.80;99.90;;;;;;5053246;28;20051;-71
2022/07/24 08:53:49;;;;;;;2.25;1.10;;;11.80;99.90;;;;;;5053036;28;20031;-70
2022/07/24 08:56:17;;;;;;;1.70;0.95;;;11.80;99.90;;;;;;5053136;28;20031;-71
2022/07/24 08:58:47;;;;;;;3.08;1.60;;;11.70;99.90;;;;;;5052999;28;20021;-71
2022/07/24 09:01:14;;;;;;;7.53;1.30;;;11.70;99.90;;;;;;5053029;28;20021;-70
2022/07/24 09:03:44;;;;;;;3.05;1.33;;;11.70;99.90;;;;;;5051663;28;20048;-70
2022/07/24 09:06:13;;;;;;;2.83;1.20;;;11.70;99.90;;;;;;5052926;28;20037;-70
2022/07/24 09:08:57;;;;;;;3.20;1.33;;;11.70;99.90;;;;;;5053016;28;20021;-71
2022/07/24 09:11:24;;;;;;;3.20;1.20;;;11.70;99.90;;;;;;5053167;28;20028;-72
2022/07/24 09:16:49;;;;;;;1.10;1.00;;;11.60;99.90;;;;;;5053549;28;20075;-71
2022/07/24 09:19:21;;;;;;;3.33;1.23;;;11.60;99.90;;;;;;5052982;28;20032;-70
2022/07/24 09:21:49;;;;;;;3.65;1.50;;;11.60;99.90;;;;;;5053032;28;20029;-70
2022/07/24 09:24:22;;;;;;;2.65;1.50;;;11.60;99.90;;;;;;5052842;28;20108;-70
2022/07/24 09:26:52;;;;;;;4.55;1.90;;;11.60;99.90;;;;;;5053028;28;20351;-71
2022/07/24 09:29:21;;;;;;;3.38;1.75;;;11.60;99.90;;;;;;5052786;28;20112;-71
2022/07/24 09:32:10;;;;;;;4.20;1.92;;;11.50;99.90;;;;;;5052779;28;20032;-71
2022/07/24 09:34:41;;;;;;;6.25;1.67;;;11.50;99.90;;;;;;5052765;28;20021;-71
2022/07/24 09:37:09;;;;;;;4.80;1.55;;;11.50;99.90;;;;;;5052782;28;20109;-70
2022/07/24 09:39:37;;;;;;;5.00;1.15;;;11.50;99.90;;;;;;5052649;28;20048;-70
2022/07/24 09:42:06;;;;;;;9.60;1.38;;;11.50;99.90;;;;;;5052766;28;20474;-71
2022/07/24 09:44:35;;;;;;;5.65;1.75;;;11.50;99.90;;;;;;5052582;28;20586;-70
2022/07/24 09:47:04;;;;;;;3.15;1.48;;;11.50;99.90;;;;;;5055890;28;20097;-71
2022/07/24 09:49:32;;;;;;;2.80;1.38;;;11.50;99.90;;;;;;5056304;28;20123;-71
2022/07/24 09:52:16;;;;;;;4.00;1.02;;;11.50;99.90;;;;;;5056195;28;20104;-71
2022/07/24 09:54:49;;;;;;;3.10;1.02;;;11.50;99.90;;;;;;5056051;28;20021;-71
2022/07/24 09:57:23;;;;;;;5.68;0.88;;;11.50;99.90;;;;;;5056467;28;20017;-70
2022/07/24 10:00:07;;;;;;;3.53;0.85;;;11.40;99.90;;;;;;5056264;28;20358;-72
2022/07/24 10:02:36;;;;;;;4.70;1.20;;;11.50;99.90;;;;;;5055869;28;20037;-72
2022/07/24 10:05:06;;;;;;;3.03;1.40;;;11.50;99.90;;;;;;5055901;28;20493;-70
2022/07/24 10:07:33;;;;;;;3.08;1.60;;;11.40;99.90;;;;;;5055982;28;20025;-70
2022/07/24 10:10:01;;;;;;;1.75;1.08;;;11.50;99.90;;;;;;5055930;28;20029;-70
2022/07/24 10:12:33;;;;;;;2.90;1.13;;;11.50;99.90;;;;;;5056044;28;20470;-71
2022/07/24 10:15:01;;;;;;;2.20;1.17;;;11.50;99.90;;;;;;5055665;28;20481;-72
2022/07/24 10:18:08;;;;;;;2.50;0.85;;;11.60;99.90;;;;;;5055725;28;20021;-70
2022/07/24 10:20:41;;;;;;;4.63;1.35;;;11.60;99.90;;;;;;5055846;28;20017;-70
2022/07/24 10:23:11;;;;;;;6.28;1.25;;;11.50;99.90;;;;;;5054122;28;20028;-72
2022/07/24 10:26:07;;;;;;;1.45;1.00;;;11.50;99.90;;;;;;5055591;28;20028;-71
2022/07/24 10:28:43;;;;;;;4.80;1.52;;;11.50;99.90;;;;;;5055493;28;20025;-70
2022/07/24 10:31:13;;;;;;;3.17;1.27;;;11.50;99.90;;;;;;5055645;28;20031;-71
2022/07/24 10:33:42;;;;;;;3.88;1.48;;;11.40;99.90;;;;;;5055381;28;20027;-73
2022/07/24 10:36:33;;;;;;;4.95;1.10;;;11.40;99.90;;;;;;5055406;28;20055;-71
2022/07/24 10:39:21;;;;;;;5.15;2.13;;;11.40;99.90;;;;;;5055464;28;20473;-72
2022/07/24 10:42:01;;;;;;;3.63;1.52;;;11.30;99.90;;;;;;5055435;28;20021;-72
2022/07/24 10:44:28;;;;;;;4.80;1.40;;;11.30;99.90;;;;;;5055085;28;20108;-71
2022/07/24 10:47:08;;;;;;;3.63;1.45;;;11.30;99.90;;;;;;5055413;28;20053;-70
2022/07/24 10:49:36;;;;;;;1.95;1.05;;;11.20;99.90;;;;;;5055110;28;20355;-72
2022/07/24 10:52:04;;;;;;;6.80;1.50;;;11.20;99.90;;;;;;5053776;28;20359;-71
2022/07/24 10:54:31;;;;;;;3.20;1.65;;;11.20;99.90;;;;;;5054630;28;20469;-72
2022/07/24 10:56:59;;;;;;;4.78;1.58;;;11.20;99.90;;;;;;5054253;28;20100;-71
2022/07/24 10:59:41;;;;;;;2.53;1.00;;;11.20;99.90;;;;;;5054958;28;20104;-70
2022/07/24 11:02:32;;;;;;;1.58;1.17;;;11.10;99.90;;;;;;5054621;28;20473;-72
2022/07/24 11:05:29;;;;;;;7.47;1.45;;;11.20;99.90;;;;;;5054767;28;20032;-70
2022/07/24 11:08:18;;;;;;;2.13;1.20;;;11.10;99.90;;;;;;5054858;28;20029;-71
2022/07/24 11:10:47;;;;;;;4.65;1.45;;;11.10;99.90;;;;;;5054782;28;20537;-72
2022/07/24 11:13:33;;;;;;;4.10;1.38;;;11.10;99.90;;;;;;5054600;28;20031;-70
2022/07/24 11:16:16;;;;;;;2.38;1.20;;;11.10;99.90;;;;;;5054555;28;20049;-70
2022/07/24 11:19:04;;;;;;;4.03;1.45;;;11.00;99.90;;;;;;5054719;28;20104;-70
2022/07/24 11:21:35;;;;;;;3.08;1.60;;;11.00;99.90;;;;;;5041022;28;20065;-72
2022/07/24 11:24:22;;;;;;;4.00;1.90;;;11.00;99.90;;;;;;5054398;28;20028;-70
2022/07/24 11:26:59;;;;;;;4.03;1.25;;;11.00;99.90;;;;;;5054708;28;20369;-72
2022/07/24 11:29:30;;;;;;;4.28;1.33;;;11.00;99.90;;;;;;5054411;28;20377;-70
2022/07/24 11:32:00;;;;;;;3.30;1.15;;;11.00;99.90;;;;;;5054423;28;20098;-72
2022/07/24 11:34:28;;;;;;;5.15;1.70;;;11.00;99.90;;;;;;5054034;28;20047;-71
2022/07/24 11:36:57;;;;;;;6.90;1.60;;;10.90;99.90;;;;;;5054327;28;20064;-70
2022/07/24 11:39:32;;;;;;;3.65;1.42;;;10.90;99.90;;;;;;5054105;28;20032;-70
2022/07/24 11:42:05;;;;;;;4.57;1.53;;;10.90;99.90;;;;;;5054110;28;20033;-71
2022/07/24 11:44:36;;;;;;;4.13;1.35;;;10.90;99.90;;;;;;5054214;28;20033;-71
2022/07/24 11:47:15;;;;;;;6.72;1.50;;;10.80;99.90;;;;;;5054426;28;20049;-70
2022/07/24 11:49:53;;;;;;;2.55;1.50;;;10.80;99.90;;;;;;5053824;28;20098;-70
2022/07/24 11:52:21;;;;;;;7.68;1.45;;;10.80;99.90;;;;;;5054081;28;20029;-70
2022/07/24 11:54:52;;;;;;;3.72;1.70;;;10.80;99.90;;;;;;5053586;28;20076;-73
2022/07/24 11:57:30;;;;;;;5.13;1.83;;;10.80;99.90;;;;;;5053760;28;20036;-72
2022/07/24 11:59:58;;;;;;;4.15;1.95;;;10.80;99.90;;;;;;5054245;28;20354;-70
2022/07/24 12:02:26;;;;;;;6.47;2.70;;;10.70;99.90;;;;;;5053487;28;20060;-72
2022/07/24 12:04:56;;;;;;;3.72;1.85;;;10.70;99.90;;;;;;5053762;28;20071;-71
2022/07/24 12:07:26;;;;;;;4.63;1.95;;;10.70;99.90;;;;;;5053721;28;20024;-71
2022/07/24 12:09:57;;;;;;;1.88;1.13;;;10.70;99.90;;;;;;5052685;28;20037;-72
2022/07/24 12:12:28;;;;;;;1.85;1.40;;;10.70;99.90;;;;;;5053602;28;20041;-70
2022/07/24 12:15:22;;;;;;;2.97;1.40;;;10.70;99.90;;;;;;5053594;28;20355;-70
2022/07/24 12:18:00;;;;;;;7.13;2.67;;;10.70;99.90;;;;;;5051027;28;20049;-72
2022/07/24 12:20:30;;;;;;;4.35;2.17;;;10.70;99.90;;;;;;5053479;28;20036;-70
2022/07/24 12:22:59;;;;;;;6.45;4.00;;;10.60;99.90;;;;;;5053746;28;20024;-70
2022/07/24 12:25:30;;;;;;;7.75;5.05;;;10.60;99.90;;;;;;5053610;28;20028;-71
2022/07/24 12:28:08;;;;;;;5.55;4.30;;;10.60;99.90;;;;;;5053531;28;20112;-70
2022/07/24 12:30:40;;;;;;;6.25;4.32;;;10.60;99.90;;;;;;5053282;28;20095;-70
2022/07/24 12:33:26;;;;;;;11.00;5.43;;;10.60;99.90;;;;;;5053413;28;20051;-72
2022/07/24 12:36:15;;;;;;;6.50;5.32;;;10.60;99.90;;;;;;5053545;28;20064;-70
2022/07/24 12:38:55;;;;;;;7.78;4.90;;;10.60;99.90;;;;;;5053251;28;20486;-70
2022/07/24 12:41:25;;;;;;;8.95;5.40;;;10.60;99.90;;;;;;5053416;28;20041;-71
2022/07/24 12:44:00;;;;;;;7.60;5.68;;;10.50;99.90;;;;;;5053191;28;20029;-70
2022/07/24 12:46:36;;;;;;;11.43;5.30;;;10.50;99.90;;;;;;5053317;28;20027;-70
2022/07/24 12:49:06;;;;;;;;;;;10.50;99.90;;;;;;5053797;28;20025;-70
2022/07/24 12:51:55;;;;;;;11.45;4.35;;;10.50;99.90;;;;;;5053571;28;19909;-70
2022/07/24 12:54:34;;;;;;;6.72;3.63;;;10.50;99.90;;;;;;5052869;28;20048;-70
2022/07/24 12:57:10;;;;;;;7.07;3.17;;;10.50;99.90;;;;;;5053338;28;20029;-70
2022/07/24 12:59:39;;;;;;;4.95;3.17;;;10.50;99.90;;;;;;5052996;28;20045;-70
2022/07/24 13:02:24;;;;;;;7.18;2.92;;;10.50;99.90;;;;;;5052831;28;20033;-70
2022/07/24 13:04:53;;;;;;;6.13;2.95;;;10.50;99.90;;;;;;5053042;28;20033;-70